createdAt,value
2022-12-18T00:00:12.541Z,34.40
2022-12-18T00:02:40.916Z,25.02
2022-12-18T00:05:11.190Z,28.25
2022-12-18T00:07:40.104Z,42.28
2022-12-18T00:10:09.882Z,33.58
2022-12-18T00:12:38.159Z,38.72
2022-12-18T00:15:07.244Z,37.20
2022-12-18T00:17:35.458Z,29.13
2022-12-18T00:20:04.874Z,40.17
2022-12-18T00:22:34.879Z,40.78
2022-12-18T00:25:03.294Z,33.92
2022-12-18T00:27:31.515Z,37.35
2022-12-18T00:29:59.773Z,37.83
2022-12-18T00:32:27.995Z,32.38
2022-12-18T00:34:56.253Z,42.35
2022-12-18T00:37:24.485Z,41.28
2022-12-18T00:39:54.227Z,40.30
2022-12-18T00:42:40.060Z,31.33
2022-12-18T00:45:12.976Z,25.77
2022-12-18T00:47:42.029Z,35.40
2022-12-18T00:50:11.916Z,48.80
2022-12-18T00:52:40.232Z,46.08
2022-12-18T00:59:08.431Z,31.70
2022-12-18T01:01:36.855Z,37.45
2022-12-18T01:04:06.423Z,31.55
2022-12-18T01:06:34.755Z,34.58
2022-12-18T01:09:03.193Z,37.95
2022-12-18T01:11:31.463Z,27.63
2022-12-18T01:14:02.882Z,27.50
2022-12-18T01:16:32.592Z,33.50
2022-12-18T01:19:01.133Z,30.30
2022-12-18T01:21:29.737Z,34.50
2022-12-18T01:23:59.639Z,40.92
2022-12-18T01:26:33.726Z,33.22
2022-12-18T01:29:04.393Z,25.65
2022-12-18T01:31:36.053Z,28.15
2022-12-18T01:34:05.672Z,35.65
2022-12-18T01:36:36.632Z,35.45
2022-12-18T01:39:08.331Z,31.30
2022-12-18T01:41:51.494Z,31.38
2022-12-18T01:45:07.419Z,18.15
2022-12-18T01:47:43.367Z,36.55
2022-12-18T01:50:18.829Z,34.70
2022-12-18T01:52:52.994Z,41.38
2022-12-18T01:55:26.839Z,31.55
2022-12-18T01:57:58.522Z,28.13
2022-12-18T02:00:29.114Z,22.60
2022-12-18T02:02:59.793Z,27.33
2022-12-18T02:05:43.086Z,30.20
2022-12-18T02:08:19.854Z,35.63
2022-12-18T02:11:05.042Z,30.85
2022-12-18T02:13:46.064Z,39.42
2022-12-18T02:16:26.802Z,31.65
2022-12-18T02:19:01.735Z,30.63
2022-12-18T02:21:48.226Z,26.33
2022-12-18T02:24:36.401Z,25.57
2022-12-18T02:27:09.970Z,23.15
2022-12-18T02:30:00.396Z,27.35
2022-12-18T02:32:37.895Z,25.10
2022-12-18T02:35:10.806Z,35.50
2022-12-18T02:37:44.503Z,27.58
2022-12-18T02:40:15.665Z,26.98
2022-12-18T02:42:45.380Z,25.10
2022-12-18T02:45:13.704Z,31.48
2022-12-18T02:47:48.054Z,25.83
2022-12-18T02:50:29.012Z,34.28
2022-12-18T02:53:13.355Z,26.45
2022-12-18T02:59:53.062Z,33.97
2022-12-18T03:02:32.890Z,31.10
2022-12-18T03:05:09.732Z,37.10
2022-12-18T03:07:47.010Z,29.45
2022-12-18T03:10:29.542Z,39.13
2022-12-18T03:13:06.854Z,28.95
2022-12-18T03:15:47.340Z,24.90
2022-12-18T03:18:24.259Z,29.98
2022-12-18T03:20:58.036Z,27.67
2022-12-18T03:23:39.393Z,32.92
2022-12-18T03:26:15.779Z,23.88
2022-12-18T03:29:12.811Z,20.17
2022-12-18T03:31:50.953Z,18.55
2022-12-18T03:34:27.463Z,31.25
2022-12-18T03:36:58.055Z,25.38
2022-12-18T03:39:30.895Z,25.63
2022-12-18T03:42:09.699Z,26.98
2022-12-18T03:45:02.184Z,28.80
2022-12-18T03:47:42.408Z,32.95
2022-12-18T03:50:22.976Z,41.25
2022-12-18T03:52:58.630Z,26.92
2022-12-18T03:55:32.618Z,24.23
2022-12-18T03:58:03.795Z,17.25
2022-12-18T04:00:42.199Z,24.60
2022-12-18T04:03:15.890Z,28.70
2022-12-18T04:05:47.546Z,22.70
2022-12-18T04:08:17.920Z,19.02
2022-12-18T04:10:48.403Z,24.30
2022-12-18T04:13:32.177Z,28.98
2022-12-18T04:16:00.649Z,30.23
2022-12-18T04:18:38.268Z,30.00
2022-12-18T04:21:08.364Z,24.83
2022-12-18T04:23:36.846Z,28.17
2022-12-18T04:26:05.623Z,48.58
2022-12-18T04:31:19.588Z,29.45
2022-12-18T04:33:52.344Z,23.50
2022-12-18T04:36:37.933Z,21.80
2022-12-18T04:39:06.407Z,22.35
2022-12-18T04:41:34.820Z,26.67
2022-12-18T04:44:05.750Z,31.67
2022-12-18T04:46:34.131Z,25.35
2022-12-18T04:49:04.171Z,28.40
2022-12-18T04:51:32.494Z,29.25
2022-12-18T04:54:00.927Z,28.05
2022-12-18T04:56:29.274Z,23.70
2022-12-18T04:58:57.548Z,18.70
2022-12-18T05:01:30.977Z,26.05
2022-12-18T05:04:38.183Z,21.98
2022-12-18T05:07:06.308Z,23.33
2022-12-18T05:09:34.559Z,19.40
2022-12-18T05:12:03.188Z,29.90
2022-12-18T05:14:35.392Z,23.30
2022-12-18T05:17:06.050Z,9.85
2022-12-18T05:19:34.584Z,21.33
2022-12-18T05:22:06.240Z,19.00
2022-12-18T05:24:34.674Z,28.70
2022-12-18T05:27:03.030Z,20.60
2022-12-18T05:29:40.346Z,16.70
2022-12-18T05:32:08.970Z,32.20
2022-12-18T05:34:37.101Z,27.50
2022-12-18T05:37:06.643Z,25.58
2022-12-18T05:39:34.965Z,25.75
2022-12-18T05:42:03.157Z,22.35
2022-12-18T05:44:31.365Z,27.70
2022-12-18T05:46:59.652Z,22.55
2022-12-18T05:49:28.304Z,28.13
2022-12-18T05:51:56.867Z,34.13
2022-12-18T05:54:26.428Z,28.05
2022-12-18T05:56:54.869Z,24.33
2022-12-18T05:59:23.485Z,24.50
2022-12-18T06:01:51.892Z,20.90
2022-12-18T06:04:20.194Z,22.88
2022-12-18T06:06:48.407Z,23.88
2022-12-18T06:09:16.632Z,16.50
2022-12-18T06:11:46.123Z,31.17
2022-12-18T06:14:14.485Z,25.52
2022-12-18T06:16:42.726Z,24.67
2022-12-18T06:19:17.087Z,16.90
2022-12-18T06:21:45.344Z,21.90
2022-12-18T06:24:13.937Z,15.70
2022-12-18T06:26:42.306Z,17.38
2022-12-18T06:29:12.013Z,24.85
2022-12-18T06:31:40.273Z,33.58
2022-12-18T06:34:08.703Z,20.30
2022-12-18T06:36:36.894Z,18.00
2022-12-18T06:39:05.687Z,23.17
2022-12-18T06:41:34.293Z,23.50
2022-12-18T06:44:02.570Z,23.15
2022-12-18T06:46:33.150Z,22.98
2022-12-18T06:49:01.309Z,17.10
2022-12-18T06:51:29.513Z,27.10
2022-12-18T06:53:57.906Z,23.00
2022-12-18T06:56:26.075Z,19.73
2022-12-18T06:58:54.583Z,24.90
2022-12-18T07:01:23.614Z,29.73
2022-12-18T07:03:56.906Z,24.45
2022-12-18T07:06:28.188Z,25.40
2022-12-18T07:08:57.089Z,23.20
2022-12-18T07:11:25.959Z,24.55
2022-12-18T07:13:55.587Z,27.48
2022-12-18T07:16:25.835Z,23.55
2022-12-18T07:18:57.506Z,32.63
2022-12-18T07:21:26.961Z,32.55
2022-12-18T07:23:55.707Z,26.85
2022-12-18T07:26:24.913Z,22.98
2022-12-18T07:28:59.580Z,26.90
2022-12-18T07:31:28.447Z,26.13
2022-12-18T07:33:58.237Z,26.80
2022-12-18T07:36:26.714Z,43.38
2022-12-18T07:38:55.072Z,48.78
2022-12-18T07:41:23.274Z,24.52
2022-12-18T07:46:57.060Z,29.08
2022-12-18T07:49:26.772Z,25.52
2022-12-18T07:51:57.276Z,22.27
2022-12-18T07:54:26.086Z,23.95
2022-12-18T07:56:54.701Z,28.48
2022-12-18T07:59:23.107Z,36.80
2022-12-18T08:01:51.532Z,35.15
2022-12-18T08:04:20.005Z,34.85
2022-12-18T08:06:49.722Z,35.28
2022-12-18T08:09:17.962Z,32.85
2022-12-18T08:11:46.479Z,371.58
2022-12-18T08:14:15.814Z,217.60
2022-12-18T08:16:44.139Z,79.90
2022-12-18T08:19:12.360Z,63.30
2022-12-18T08:21:40.908Z,143.65
2022-12-18T08:24:12.109Z,69.05
2022-12-18T08:26:40.591Z,57.60
2022-12-18T08:29:10.533Z,52.65
2022-12-18T08:31:39.592Z,46.53
2022-12-18T08:34:08.104Z,28.73
2022-12-18T08:36:38.416Z,50.25
2022-12-18T08:39:07.046Z,32.90
2022-12-18T08:41:36.691Z,27.10
2022-12-18T08:44:36.714Z,34.20
2022-12-18T08:47:11.064Z,31.95
2022-12-18T08:49:39.629Z,35.15
2022-12-18T08:52:07.833Z,78.78
2022-12-18T08:54:36.910Z,85.18
2022-12-18T08:57:06.500Z,53.88
2022-12-18T08:59:34.740Z,40.08
2022-12-18T09:02:03.161Z,33.30
2022-12-18T09:04:31.735Z,24.90
2022-12-18T09:07:40.072Z,23.40
2022-12-18T09:14:15.574Z,25.48
2022-12-18T09:16:43.988Z,16.23
2022-12-18T09:19:15.915Z,27.60
2022-12-18T09:21:48.032Z,28.05
2022-12-18T09:24:17.938Z,23.63
2022-12-18T09:26:47.519Z,24.75
2022-12-18T09:29:18.935Z,37.00
2022-12-18T09:31:47.993Z,30.75
2022-12-18T09:34:16.270Z,23.83
2022-12-18T09:36:44.694Z,28.63
2022-12-18T09:39:12.804Z,28.65
2022-12-18T09:41:50.975Z,31.77
2022-12-18T09:44:30.012Z,21.90
2022-12-18T09:47:14.840Z,24.30
2022-12-18T09:49:47.731Z,28.67
2022-12-18T09:52:23.891Z,26.17
2022-12-18T09:55:00.684Z,19.85
2022-12-18T09:57:29.123Z,23.45
2022-12-18T10:00:08.391Z,29.33
2022-12-18T10:02:36.769Z,26.30
2022-12-18T10:05:09.952Z,30.48
2022-12-18T10:07:57.280Z,28.38
2022-12-18T10:10:38.633Z,29.20
2022-12-18T10:13:24.688Z,33.25
2022-12-18T10:16:10.008Z,34.60
2022-12-18T10:19:03.557Z,29.00
2022-12-18T10:21:41.920Z,27.10
2022-12-18T10:24:27.764Z,33.28
2022-12-18T10:27:09.727Z,29.23
2022-12-18T10:29:38.265Z,32.72
2022-12-18T10:32:09.647Z,25.08
2022-12-18T10:34:38.587Z,27.38
2022-12-18T10:37:17.807Z,33.33
2022-12-18T10:39:47.080Z,30.95
2022-12-18T10:42:27.892Z,34.78
2022-12-18T10:45:05.659Z,24.60
2022-12-18T10:47:37.333Z,28.20
2022-12-18T10:50:07.108Z,28.83
2022-12-18T10:52:38.662Z,24.42
2022-12-18T10:55:20.504Z,28.88
2022-12-18T10:57:51.798Z,32.58
2022-12-18T11:00:37.087Z,33.47
2022-12-18T11:03:38.928Z,27.75
2022-12-18T11:06:27.103Z,29.70
2022-12-18T11:09:16.670Z,29.30
2022-12-18T11:11:53.288Z,32.55
2022-12-18T11:14:27.437Z,26.58
2022-12-18T11:19:56.171Z,27.90
2022-12-18T11:22:28.869Z,28.52
2022-12-18T11:25:32.205Z,28.95
2022-12-18T11:27:54.666Z,28.42
2022-12-18T11:30:29.942Z,30.67
2022-12-18T11:33:15.311Z,34.35
2022-12-18T11:35:54.986Z,30.42
2022-12-18T11:38:34.506Z,26.63
2022-12-18T11:41:17.551Z,27.25
2022-12-18T11:43:55.051Z,30.60
2022-12-18T11:46:36.858Z,27.45
2022-12-18T11:49:14.988Z,34.25
2022-12-18T11:51:58.058Z,30.42
2022-12-18T11:54:26.734Z,36.13
2022-12-18T11:57:09.326Z,34.50
2022-12-18T11:59:54.788Z,36.22
2022-12-18T12:02:44.632Z,33.72
2022-12-18T12:05:49.820Z,33.25
2022-12-18T12:08:34.805Z,35.00
2022-12-18T12:11:16.299Z,27.45
2022-12-18T12:14:05.876Z,33.35
2022-12-18T12:16:47.612Z,32.00
2022-12-18T12:19:38.227Z,32.60
2022-12-18T12:22:20.113Z,30.33
2022-12-18T12:25:10.143Z,33.30
2022-12-18T12:28:01.130Z,33.28
2022-12-18T12:30:44.621Z,32.60
2022-12-18T12:33:32.522Z,37.80
2022-12-18T12:36:13.231Z,35.15
2022-12-18T12:39:32.650Z,31.52
2022-12-18T12:42:34.814Z,36.92
2022-12-18T12:45:08.982Z,32.75
2022-12-18T12:47:46.321Z,31.40
2022-12-18T12:50:36.305Z,36.90
2022-12-18T12:53:18.512Z,32.03
2022-12-18T12:55:55.045Z,33.05
2022-12-18T12:58:37.769Z,24.42
2022-12-18T13:01:55.270Z,36.65
2022-12-18T13:04:37.326Z,39.38
2022-12-18T13:07:23.179Z,35.00
2022-12-18T13:10:28.921Z,33.75
2022-12-18T13:13:01.027Z,36.88
2022-12-18T13:15:41.350Z,34.15
2022-12-18T13:18:21.686Z,39.83
2022-12-18T13:21:06.273Z,30.50
2022-12-18T13:23:38.128Z,40.08
2022-12-18T13:26:35.388Z,34.20
2022-12-18T13:37:53.926Z,39.78
2022-12-18T13:40:59.759Z,42.65
2022-12-18T13:43:45.047Z,41.20
2022-12-18T13:46:26.452Z,37.08
2022-12-18T13:49:02.152Z,40.67
2022-12-18T13:51:33.385Z,43.35
2022-12-18T13:54:15.770Z,39.55
2022-12-18T13:56:48.099Z,35.55
2022-12-18T13:59:23.260Z,37.53
2022-12-18T14:01:57.723Z,45.78
2022-12-18T14:04:31.757Z,37.83
2022-12-18T14:07:07.870Z,41.25
2022-12-18T14:09:49.868Z,40.55
2022-12-18T14:12:41.571Z,40.42
2022-12-18T14:15:28.514Z,42.00
2022-12-18T14:18:02.278Z,35.78
2022-12-18T14:20:34.986Z,42.00
2022-12-18T14:25:42.807Z,38.85
2022-12-18T14:28:17.926Z,43.63
2022-12-18T14:55:19.179Z,45.05
2022-12-18T14:57:54.358Z,47.30
2022-12-18T15:06:38.786Z,32.63
2022-12-18T15:09:24.623Z,45.47
2022-12-18T15:11:59.665Z,43.78
2022-12-18T15:14:54.862Z,44.53
2022-12-18T15:17:26.882Z,51.75
2022-12-18T15:20:02.496Z,49.97
2022-12-18T15:22:36.199Z,45.88
2022-12-18T15:25:26.395Z,53.63
2022-12-18T15:27:54.730Z,37.83
2022-12-18T15:30:29.116Z,43.95
2022-12-18T15:33:29.267Z,59.28
2022-12-18T15:36:02.091Z,43.78
2022-12-18T15:38:31.660Z,49.67
2022-12-18T15:41:01.668Z,47.45
2022-12-18T15:43:40.063Z,51.30
2022-12-18T15:49:25.368Z,51.50
2022-12-18T15:52:12.672Z,56.08
2022-12-18T15:55:06.439Z,49.15
2022-12-18T15:57:37.660Z,44.92
2022-12-18T16:00:08.028Z,54.90
2022-12-18T16:03:10.228Z,48.35
2022-12-18T16:05:39.180Z,41.40
2022-12-18T16:08:07.976Z,54.10
2022-12-18T16:10:39.091Z,47.67
2022-12-18T16:13:22.872Z,53.38
2022-12-18T16:15:54.021Z,64.65
2022-12-18T16:18:26.022Z,50.88
2022-12-18T16:23:46.642Z,55.03
2022-12-18T16:26:16.733Z,48.05
2022-12-18T16:28:48.613Z,52.88
2022-12-18T16:31:17.192Z,53.00
2022-12-18T16:33:47.000Z,40.33
2022-12-18T16:36:15.568Z,54.38
2022-12-18T16:38:43.842Z,41.53
2022-12-18T16:41:34.203Z,52.00
2022-12-18T16:44:06.443Z,44.83
2022-12-18T16:46:35.102Z,47.13
2022-12-18T16:49:08.867Z,54.72
2022-12-18T16:51:37.356Z,52.78
2022-12-18T16:54:41.953Z,51.70
2022-12-18T16:57:25.368Z,52.60
2022-12-18T17:00:05.060Z,50.95
2022-12-18T17:02:42.071Z,45.13
2022-12-18T17:05:12.489Z,47.95
2022-12-18T17:07:40.725Z,50.08
2022-12-18T17:10:10.636Z,49.28
2022-12-18T17:12:39.426Z,51.28
2022-12-18T17:15:12.962Z,46.85
2022-12-18T17:20:54.085Z,52.35
2022-12-18T17:23:24.524Z,30.70
2022-12-18T17:26:11.834Z,49.05
2022-12-18T17:28:51.826Z,47.13
2022-12-18T17:32:03.124Z,52.95
2022-12-18T17:34:37.043Z,51.90
2022-12-18T17:37:10.970Z,53.15
2022-12-18T17:40:01.753Z,57.75
2022-12-18T17:43:09.489Z,51.65
2022-12-18T17:45:38.318Z,51.67
2022-12-18T17:48:18.862Z,48.97
2022-12-18T17:50:47.207Z,41.95
2022-12-18T17:53:17.051Z,45.60
2022-12-18T17:55:45.225Z,57.78
2022-12-18T17:58:13.710Z,56.22
2022-12-18T18:00:42.303Z,65.25
2022-12-18T18:03:10.816Z,53.47
2022-12-18T18:05:39.143Z,53.65
2022-12-18T18:08:07.670Z,48.00
2022-12-18T18:10:39.784Z,48.42
2022-12-18T18:13:43.397Z,60.40
2022-12-18T18:16:14.797Z,48.33
2022-12-18T18:18:43.254Z,42.95
2022-12-18T18:21:11.422Z,43.95
2022-12-18T18:23:39.846Z,47.33
2022-12-18T18:26:15.836Z,46.58
2022-12-18T18:28:44.097Z,54.42
2022-12-18T18:31:13.240Z,51.63
2022-12-18T18:33:41.921Z,51.00
2022-12-18T18:36:13.442Z,54.50
2022-12-18T18:38:46.724Z,57.40
2022-12-18T18:41:18.749Z,44.90
2022-12-18T18:43:47.349Z,64.38
2022-12-18T18:46:17.977Z,59.42
2022-12-18T18:48:46.123Z,87.28
2022-12-18T18:51:21.198Z,67.15
2022-12-18T18:53:52.272Z,63.25
2022-12-18T18:59:15.952Z,48.72
2022-12-18T19:01:44.744Z,53.97
2022-12-18T19:04:12.978Z,51.33
2022-12-18T19:06:42.671Z,56.30
2022-12-18T19:09:12.467Z,54.92
2022-12-18T19:11:59.635Z,55.33
2022-12-18T19:14:27.751Z,56.65
2022-12-18T19:16:55.977Z,54.70
2022-12-18T19:19:25.328Z,78.63
2022-12-18T19:21:53.817Z,60.50
2022-12-18T19:24:22.593Z,52.40
2022-12-18T19:26:52.292Z,56.42
2022-12-18T19:29:23.655Z,52.47
2022-12-18T19:31:51.876Z,56.08
2022-12-18T19:34:20.314Z,49.42
2022-12-18T19:36:48.789Z,60.97
2022-12-18T19:39:19.784Z,69.40
2022-12-18T19:41:48.980Z,55.17
2022-12-18T19:44:20.065Z,54.30
2022-12-18T19:46:51.920Z,60.00
2022-12-18T19:49:20.090Z,51.85
2022-12-18T19:51:50.278Z,49.03
2022-12-18T19:54:19.163Z,63.28
2022-12-18T19:56:47.682Z,51.58
2022-12-18T19:59:18.740Z,53.38
2022-12-18T20:01:46.967Z,55.67
2022-12-18T20:04:15.392Z,54.25
2022-12-18T20:06:52.436Z,53.47
2022-12-18T20:11:51.020Z,51.50
2022-12-18T20:14:28.231Z,53.20
2022-12-18T20:19:28.874Z,63.88
2022-12-18T20:21:57.416Z,52.75
2022-12-18T20:24:25.716Z,63.47
2022-12-18T20:26:53.852Z,56.78
2022-12-18T20:29:27.573Z,56.38
2022-12-18T20:31:56.296Z,62.65
2022-12-18T20:34:24.853Z,48.40
2022-12-18T20:36:53.305Z,57.00
2022-12-18T20:39:21.719Z,63.17
2022-12-18T20:41:51.492Z,65.07
2022-12-18T20:44:22.500Z,54.28
2022-12-18T20:46:57.383Z,52.78
2022-12-18T20:49:27.888Z,64.10
2022-12-18T20:51:58.276Z,59.53
2022-12-18T20:54:28.828Z,61.00
2022-12-18T20:56:58.068Z,68.95
2022-12-18T20:59:26.868Z,129.35
2022-12-18T21:01:57.196Z,59.63
2022-12-18T21:04:26.128Z,52.25
2022-12-18T21:07:00.685Z,56.40
2022-12-18T21:09:37.538Z,59.03
2022-12-18T21:12:29.382Z,54.65
2022-12-18T21:15:06.298Z,72.82
2022-12-18T21:17:44.678Z,92.60
2022-12-18T21:20:18.157Z,83.55
2022-12-18T21:22:49.477Z,68.78
2022-12-18T21:25:17.979Z,81.70
2022-12-18T21:27:46.234Z,85.20
2022-12-18T21:30:15.103Z,123.60
2022-12-18T21:32:44.749Z,106.10
2022-12-18T21:35:12.973Z,134.50
2022-12-18T21:37:46.295Z,139.02
2022-12-18T21:40:15.140Z,91.10
2022-12-18T21:43:00.721Z,98.82
2022-12-18T21:45:28.884Z,74.15
2022-12-18T21:47:58.560Z,67.65
2022-12-18T21:50:27.148Z,64.00
2022-12-18T21:52:55.534Z,71.18
2022-12-18T21:55:27.898Z,69.65
2022-12-18T21:57:56.006Z,105.57
2022-12-18T22:00:24.619Z,115.05
2022-12-18T22:03:17.521Z,85.45
2022-12-18T22:05:43.362Z,68.82
2022-12-18T22:08:11.764Z,89.72
2022-12-18T22:10:40.464Z,60.05
2022-12-18T22:13:10.489Z,56.03
2022-12-18T22:15:38.853Z,69.72
2022-12-18T22:18:12.891Z,91.40
2022-12-18T22:20:42.821Z,58.55
2022-12-18T22:23:16.123Z,63.53
2022-12-18T22:25:44.726Z,57.10
2022-12-18T22:28:30.502Z,74.38
2022-12-18T22:30:59.881Z,75.95
2022-12-18T22:33:29.473Z,60.45
2022-12-18T22:35:59.039Z,55.20
2022-12-18T22:38:27.342Z,62.00
2022-12-18T22:40:56.428Z,56.22
2022-12-18T22:43:24.583Z,58.15
2022-12-18T22:45:52.775Z,60.83
2022-12-18T22:48:20.861Z,59.25
2022-12-18T22:50:49.566Z,63.55
2022-12-18T22:53:20.563Z,64.32
2022-12-18T22:55:48.801Z,60.67
2022-12-18T22:58:16.880Z,69.25
2022-12-18T23:00:45.136Z,58.92
2022-12-18T23:03:13.438Z,61.13
2022-12-18T23:05:41.643Z,64.43
2022-12-18T23:08:09.851Z,64.70
2022-12-18T23:10:40.295Z,60.58
2022-12-18T23:13:11.479Z,65.25
2022-12-18T23:15:43.048Z,75.05
2022-12-18T23:18:11.635Z,67.85
2022-12-18T23:20:40.060Z,72.60
2022-12-18T23:23:08.544Z,63.10
2022-12-18T23:25:36.851Z,67.22
2022-12-18T23:28:07.052Z,58.88
2022-12-18T23:30:35.616Z,63.17
2022-12-18T23:33:03.833Z,70.57
2022-12-18T23:35:32.418Z,66.68
2022-12-18T23:38:00.931Z,70.85
2022-12-18T23:40:30.717Z,67.50
2022-12-18T23:43:01.172Z,63.17
2022-12-18T23:45:30.754Z,62.75
2022-12-18T23:47:58.952Z,72.28
2022-12-18T23:50:29.657Z,84.15
2022-12-18T23:53:04.624Z,60.75
2022-12-18T23:55:34.846Z,68.18
2022-12-18T23:58:03.069Z,74.63
